Alpine Village, Colorado
Current Conditions -  °F | °C
As of 12:53 AM on Monday 22 Dec 2014 (Local Time) from K7BM Reporting Station
Light Snow Light Snow  
Wind Chill: 26°   Ceiling: 3100
Heat Index: 32°   Visibility: 2.5mi
Dew Point: 25°   Wind: 6mph
Humidity: 75%   Direction: 50°NE
Pressure: 29.73"   Gusts: NA
Location:  38.7194°N, 106.276°W
Report Text: K7BM 220753Z AUTO 05005KT 2 1/2SM -SN SCT025 BKN031 OVC041 00/M04 A2973 RMK AO2 VIS 1 1/2V5
Loading
Personal Weather Stations






























Interactive Weather Map New forecast layout! Learn more

10-Day Weather Forecast

Advertisements
Track Severe Weather on mobile